Barksdale Air Force Base
KBAD : now visible

Airfield :











YOU CAN JOIN US ON...

 
LOGIN :

Register | Disclaimer

   EN    FR    IT 

 









Legend :    VFR   Marginal VFR   IFR   Intensive IFR   Very Intensive IFR
Visi :
Ceiling :
>= 8 km
>= 3000ft
5 to 8 km
1000 to 3000 ft
1500m to 5 km
500 to 1000 ft
800 to 1500m
200 to 500 ft
< 800m
< 200 ft
Symbols :   Thunderstorms  Fog  Heavy snow  Heavy precipitations  Wind > 20 kt






- Airport Elevation : 166 ft


KBAD - Barksdale Air Force Base

CURRENT METAR :
  • 131456Z AUTO 16004KT 10SM CLR M03/M07 A3037 RMK AO2 SLP289 T10271069 50004

EXPIRED METARs :
  • 131356Z AUTO 00000KT 10SM CLR M04/M08 A3039 RMK AO2 SLP296 T10441078

TAF COR TAF KBAD
Valid from the 13 at 11:00 until the 14 at 16:00 UTC


131100Z 1311/1416 03004KT 9999 FEW250 QNH3013INS WND 15006KT AFT 1316
BECMG 1403/1404 17005KT 9999 BKN180 QNH3016INS
BECMG 1408/1409 16005KT 9000 -SHRA OVC018 QNH3016INS
BECMG 1412/1413 23005KT 9000 -RA OVC005 QNH3020INS TX06/1321Z TNM07/1312Z



MET'MAP, your aeronautical weather chart ! - Copyright ORBIFLY December 2007 - Disclaimer

ORBIFLY MET'MAP TEAM :

Programming & Development : Alexandra Zaïnal
Concept & Development : Baudouin d'Aumeries
Co-Development & Prog : Marc-Olivier Méhu
Technical & hardware support : Manuel Goepfert

Contact : metmap@orbifly.com




SOURCES & CREDITS :

   NOAA       Earth
Advisory